Time;durP1;ratioP1;P1;durP2;ratioP2;P2;SDS_P1;SDS_P2;PMS_P1;PMS_P2;Temp;Humidity;BMP_temperature;BMP_pressure;BME280_temperature;BME280_humidity;BME280_pressure;Samples;Min_cycle;Max_cycle;Signal;HPM_P1;HPM_P2
2022/09/18 00:01:19;;;;;;;0.60;0.60;;;8.80;99.90;;;;;;6181953;23;20097;-76
2022/09/18 00:03:46;;;;;;;1.83;1.02;;;;;;;;;;6182505;23;20011;-76
2022/09/18 00:06:23;;;;;;;0.63;0.63;;;8.90;95.30;;;;;;6181836;23;20009;-76
2022/09/18 00:08:54;;;;;;;0.50;0.50;;;9.00;97.40;;;;;;6182180;23;20423;-76
2022/09/18 00:11:22;;;;;;;3.00;0.80;;;8.80;95.60;;;;;;6182247;23;20098;-76
2022/09/18 00:13:49;;;;;;;1.45;1.05;;;;;;;;;;6182328;23;20009;-76
2022/09/18 00:16:16;;;;;;;1.00;0.88;;;8.60;96.10;;;;;;6181393;23;20009;-76
2022/09/18 00:18:42;;;;;;;0.70;0.70;;;;;;;;;;6182176;23;20063;-76
2022/09/18 00:21:11;;;;;;;1.67;1.00;;;8.60;95.80;;;;;;6182037;23;20004;-76
2022/09/18 00:23:38;;;;;;;0.70;0.70;;;8.60;95.90;;;;;;6181687;23;20012;-77
2022/09/18 00:26:04;;;;;;;7.93;1.35;;;9.00;99.90;;;;;;6181968;23;20436;-76
2022/09/18 00:28:31;;;;;;;6.78;1.10;;;8.50;96.00;;;;;;6182021;23;20348;-76
2022/09/18 00:31:07;;;;;;;3.33;1.10;;;8.40;96.10;;;;;;6181992;23;20032;-76
2022/09/18 00:33:33;;;;;;;1.75;0.88;;;8.40;96.20;;;;;;6181766;23;20009;-76
2022/09/18 00:36:04;;;;;;;0.88;0.88;;;8.40;96.10;;;;;;6182174;23;20005;-76
2022/09/18 00:38:33;;;;;;;4.85;1.13;;;;;;;;;;6181450;23;20457;-76
2022/09/18 00:41:00;;;;;;;1.23;1.05;;;8.10;99.90;;;;;;6182008;23;20850;-76
2022/09/18 00:43:29;;;;;;;0.70;0.70;;;8.20;97.00;;;;;;6181469;23;20061;-76
2022/09/18 00:46:07;;;;;;;0.90;0.90;;;7.80;97.30;;;;;;6154859;23;20005;-76
2022/09/18 00:49:11;;;;;;;1.42;0.68;;;8.20;96.60;;;;;;6181976;23;20005;-76
2022/09/18 00:51:38;;;;;;;0.75;0.75;;;8.20;96.30;;;;;;6177156;23;20065;-76
2022/09/18 00:54:33;;;;;;;4.82;1.02;;;8.30;99.90;;;;;;6181452;23;20005;-76
2022/09/18 00:57:03;;;;;;;0.70;0.70;;;7.90;99.90;;;;;;6181635;23;20043;-76
2022/09/18 00:59:31;;;;;;;1.90;0.70;;;8.10;96.40;;;;;;6181841;23;20361;-76
2022/09/18 01:01:58;;;;;;;9.10;1.00;;;8.10;96.30;;;;;;6181435;23;20012;-75
2022/09/18 01:04:24;;;;;;;1.08;0.90;;;;;;;;;;6182234;23;20443;-76
2022/09/18 01:07:13;;;;;;;1.05;0.80;;;8.00;96.30;;;;;;6181520;23;20005;-76
2022/09/18 01:09:40;;;;;;;0.73;0.70;;;;;;;;;;6181440;23;20101;-76
2022/09/18 01:12:20;;;;;;;1.38;1.08;;;7.70;99.90;;;;;;6181703;23;20001;-76
2022/09/18 01:14:59;;;;;;;1.30;0.82;;;;;;;;;;6181223;23;20436;-76
2022/09/18 01:17:40;;;;;;;0.63;0.63;;;7.90;99.90;;;;;;6181740;23;20076;-76
2022/09/18 01:20:29;;;;;;;1.05;1.00;;;8.20;99.90;;;;;;6181753;23;20041;-76
2022/09/18 01:23:04;;;;;;;0.80;0.80;;;8.00;96.10;;;;;;6181458;23;20032;-76
2022/09/18 01:25:54;;;;;;;6.50;0.70;;;8.00;95.80;;;;;;6183417;23;20082;-76
2022/09/18 01:28:28;;;;;;;0.80;0.80;;;8.20;99.90;;;;;;6183957;23;20016;-76
2022/09/18 01:30:57;;;;;;;0.52;0.52;;;5.90;95.50;;;;;;6183647;23;20080;-76
2022/09/18 01:33:47;;;;;;;0.80;0.80;;;7.90;95.90;;;;;;6183340;23;20024;-75
2022/09/18 01:36:15;;;;;;;0.75;0.70;;;7.90;99.90;;;;;;6183538;23;20028;-75
2022/09/18 01:38:49;;;;;;;0.80;0.80;;;7.70;96.10;;;;;;6183078;23;20448;-76
2022/09/18 01:41:20;;;;;;;3.70;0.90;;;7.70;96.30;;;;;;6183600;23;20012;-76
2022/09/18 01:43:51;;;;;;;2.47;1.42;;;7.60;96.20;;;;;;6183576;23;20007;-76
2022/09/18 01:46:18;;;;;;;0.73;0.60;;;7.60;96.40;;;;;;6182935;23;20015;-76
2022/09/18 01:48:49;;;;;;;7.20;0.90;;;7.40;99.90;;;;;;6183477;23;20001;-76
2022/09/18 01:51:38;;;;;;;0.77;0.77;;;7.40;98.90;;;;;;6183617;23;20009;-75
2022/09/18 01:54:11;;;;;;;1.75;0.85;;;7.30;99.10;;;;;;6182722;23;20092;-76
2022/09/18 01:56:45;;;;;;;1.27;1.17;;;8.00;96.70;;;;;;6183046;23;20458;-76
2022/09/18 01:59:25;;;;;;;3.65;0.80;;;8.00;99.10;;;;;;6183145;23;20009;-76
2022/09/18 02:01:54;;;;;;;0.77;0.77;;;7.80;99.90;;;;;;6183391;23;20001;-76
2022/09/18 02:04:25;;;;;;;1.85;0.98;;;7.70;96.10;;;;;;6182895;23;20016;-76
2022/09/18 02:07:16;;;;;;;1.25;0.93;;;7.40;99.90;;;;;;6183294;23;19996;-76
2022/09/18 02:09:43;;;;;;;0.85;0.85;;;7.30;99.60;;;;;;6183098;23;20001;-76
2022/09/18 02:12:12;;;;;;;1.20;0.67;;;7.30;99.90;;;;;;6183753;23;20005;-76
2022/09/18 02:14:43;;;;;;;1.05;0.88;;;7.40;99.90;;;;;;6182581;23;20012;-76
2022/09/18 02:17:23;;;;;;;0.95;0.88;;;7.30;96.90;;;;;;6183702;23;20012;-76
2022/09/18 02:19:55;;;;;;;1.27;0.95;;;7.20;97.90;;;;;;6182973;23;20009;-76
2022/09/18 02:22:23;;;;;;;2.20;0.80;;;7.20;99.90;;;;;;6183282;23;20007;-76
2022/09/18 02:24:52;;;;;;;2.70;0.77;;;7.30;96.60;;;;;;6182937;23;20000;-77
2022/09/18 02:27:19;;;;;;;0.70;0.70;;;8.00;99.90;;;;;;6182864;23;20001;-76
2022/09/18 02:29:48;;;;;;;0.57;0.57;;;7.20;97.60;;;;;;6183190;23;20143;-75
2022/09/18 02:32:14;;;;;;;0.60;0.60;;;;;;;;;;6183268;23;19997;-76
2022/09/18 02:34:40;;;;;;;0.75;0.65;;;7.10;99.40;;;;;;6182930;23;20389;-76
2022/09/18 02:37:38;;;;;;;0.80;0.63;;;7.30;99.90;;;;;;6183229;23;20004;-76
2022/09/18 02:40:42;;;;;;;0.60;0.60;;;7.10;97.70;;;;;;6182600;23;20047;-76
2022/09/18 02:43:23;;;;;;;6.50;0.90;;;7.20;96.40;;;;;;6182961;23;20364;-76
2022/09/18 02:46:10;;;;;;;1.77;1.00;;;7.30;96.40;;;;;;6182651;23;20005;-76
2022/09/18 02:48:59;;;;;;;0.80;0.80;;;7.50;99.90;;;;;;6183018;23;20009;-76
2022/09/18 02:51:53;;;;;;;8.93;0.70;;;7.20;96.50;;;;;;6182987;23;20009;-76
2022/09/18 02:54:27;;;;;;;2.55;0.75;;;7.40;99.90;;;;;;6183064;23;20009;-75
2022/09/18 02:57:01;;;;;;;1.20;0.75;;;7.30;99.90;;;;;;6182859;23;20163;-76
2022/09/18 02:59:35;;;;;;;2.05;0.80;;;7.20;99.90;;;;;;6182534;23;20543;-75
2022/09/18 03:02:01;;;;;;;2.67;1.00;;;7.00;99.90;;;;;;6182902;23;20535;-75
2022/09/18 03:04:27;;;;;;;0.70;0.65;;;7.20;99.90;;;;;;6182968;23;20020;-76
2022/09/18 03:06:53;;;;;;;0.60;0.60;;;;;;;;;;6182793;23;19997;-76
2022/09/18 03:09:19;;;;;;;1.42;0.60;;;;;;;;;;6182479;23;20328;-75
2022/09/18 03:11:45;;;;;;;0.70;0.70;;;;;;;;;;6182719;23;20005;-76
2022/09/18 03:14:11;;;;;;;0.70;0.70;;;7.30;96.80;;;;;;6182158;23;20045;-76
2022/09/18 03:16:37;;;;;;;2.17;0.68;;;;;;;;;;6183099;23;20061;-78
2022/09/18 03:19:03;;;;;;;1.25;1.15;;;;;;;;;;6182344;23;20005;-78
2022/09/18 03:21:29;;;;;;;0.88;0.63;;;;;;;;;;6182717;23;20384;-76
2022/09/18 03:23:55;;;;;;;3.50;0.80;;;;;;;;;;6182487;23;20012;-76
2022/09/18 03:26:21;;;;;;;0.70;0.65;;;7.10;96.90;;;;;;6182671;23;20399;-76
2022/09/18 03:28:47;;;;;;;1.05;0.95;;;;;;;;;;6182467;23;20043;-75
2022/09/18 03:31:13;;;;;;;2.55;0.88;;;7.00;99.90;;;;;;6182527;23;19998;-76
2022/09/18 03:33:39;;;;;;;0.70;0.70;;;7.10;99.90;;;;;;6182398;23;20579;-76
2022/09/18 03:36:05;;;;;;;2.15;0.70;;;6.70;99.90;;;;;;6182637;23;20059;-75
2022/09/18 03:38:32;;;;;;;0.82;0.68;;;6.70;99.90;;;;;;6181898;23;20005;-75
2022/09/18 03:40:58;;;;;;;0.77;0.75;;;;;;;;;;6182733;23;20012;-76
2022/09/18 03:43:25;;;;;;;1.15;0.80;;;6.70;99.90;;;;;;6182272;23;20001;-76
2022/09/18 03:45:51;;;;;;;0.70;0.70;;;6.90;99.90;;;;;;6181373;23;20467;-75
2022/09/18 03:48:16;;;;;;;1.33;0.90;;;6.70;99.90;;;;;;6182163;23;20005;-76
2022/09/18 03:50:42;;;;;;;0.75;0.65;;;;;;;;;;6182315;23;20008;-76
2022/09/18 03:53:08;;;;;;;0.73;0.70;;;7.00;99.90;;;;;;6182265;23;20005;-76
2022/09/18 03:55:37;;;;;;;0.65;0.65;;;6.70;97.70;;;;;;6182163;23;20071;-76
2022/09/18 03:58:03;;;;;;;1.55;1.00;;;6.70;99.90;;;;;;6181943;23;20029;-76
2022/09/18 04:00:28;;;;;;;0.70;0.70;;;6.80;99.90;;;;;;6182168;23;20067;-76
2022/09/18 04:02:54;;;;;;;0.70;0.70;;;6.50;99.90;;;;;;6182068;23;20009;-76
2022/09/18 04:05:20;;;;;;;5.30;0.95;;;;;;;;;;6182316;23;20016;-76
2022/09/18 04:07:46;;;;;;;1.40;0.90;;;6.70;99.90;;;;;;6181926;23;20003;-76
2022/09/18 04:10:12;;;;;;;1.25;0.70;;;7.00;99.90;;;;;;6182460;23;20057;-75
2022/09/18 04:12:37;;;;;;;1.25;0.70;;;6.70;99.90;;;;;;6182174;23;20436;-76
2022/09/18 04:15:03;;;;;;;8.68;0.80;;;;;;;;;;6181876;23;20005;-75
2022/09/18 04:17:29;;;;;;;2.03;0.77;;;;;;;;;;6182656;23;20018;-76
2022/09/18 04:19:55;;;;;;;0.60;0.60;;;;;;;;;;6155483;23;20073;-76
2022/09/18 04:22:21;;;;;;;0.63;0.60;;;6.00;98.30;;;;;;6181907;23;20027;-76
2022/09/18 04:24:49;;;;;;;1.00;0.77;;;;;;;;;;6182074;23;20005;-76
2022/09/18 04:27:15;;;;;;;0.70;0.70;;;6.30;99.90;;;;;;6182370;23;20112;-76
2022/09/18 04:29:40;;;;;;;0.60;0.60;;;6.10;99.90;;;;;;6181656;23;20506;-76
2022/09/18 04:32:06;;;;;;;1.67;0.85;;;6.00;99.90;;;;;;6181871;23;20413;-76
2022/09/18 04:34:32;;;;;;;0.80;0.80;;;6.50;99.90;;;;;;6181964;23;20011;-76
2022/09/18 04:36:58;;;;;;;0.50;0.50;;;;;;;;;;6182209;23;20009;-76
2022/09/18 04:39:23;;;;;;;0.80;0.80;;;6.50;99.70;;;;;;6181751;23;20017;-76
2022/09/18 04:41:50;;;;;;;0.70;0.70;;;;;;;;;;6181998;23;20455;-76
2022/09/18 04:44:16;;;;;;;1.35;0.88;;;;;;;;;;6181578;23;20329;-76
2022/09/18 04:46:42;;;;;;;3.53;0.73;;;;;;;;;;6181603;23;20012;-76
2022/09/18 04:49:08;;;;;;;1.00;0.73;;;6.30;99.90;;;;;;6182219;23;20435;-75
2022/09/18 04:51:33;;;;;;;0.60;0.60;;;6.50;99.90;;;;;;6181471;23;20091;-76
2022/09/18 04:54:00;;;;;;;0.80;0.73;;;;;;;;;;6181812;23;20009;-75
2022/09/18 04:56:26;;;;;;;14.30;0.95;;;6.40;99.00;;;;;;6181749;23;20017;-76
2022/09/18 04:58:52;;;;;;;1.55;0.68;;;6.60;97.80;;;;;;6181549;23;20083;-76
2022/09/18 05:01:18;;;;;;;0.65;0.65;;;;;;;;;;6181538;23;20448;-76
2022/09/18 05:03:44;;;;;;;0.70;0.70;;;;;;;;;;6182117;23;20005;-76
2022/09/18 05:06:10;;;;;;;0.65;0.65;;;;;;;;;;6181706;23;20020;-75
2022/09/18 05:08:36;;;;;;;2.05;1.05;;;;;;;;;;6181822;23;20009;-76
2022/09/18 05:11:03;;;;;;;0.70;0.70;;;6.50;99.90;;;;;;6181802;23;20012;-76
2022/09/18 05:13:29;;;;;;;6.32;1.05;;;;;;;;;;6180011;23;20367;-76
2022/09/18 05:15:55;;;;;;;1.10;1.00;;;6.30;97.30;;;;;;6181682;23;20036;-76
2022/09/18 05:18:22;;;;;;;0.60;0.60;;;6.30;97.50;;;;;;6181796;23;20417;-76
2022/09/18 05:20:47;;;;;;;5.05;1.00;;;6.10;99.90;;;;;;6181672;23;20088;-76
2022/09/18 05:23:13;;;;;;;0.90;0.90;;;6.40;99.10;;;;;;6181905;23;20029;-76
2022/09/18 05:25:39;;;;;;;0.70;0.70;;;;;;;;;;6181403;23;20072;-76
2022/09/18 05:28:06;;;;;;;3.85;0.80;;;;;;;;;;6181485;23;20426;-76
2022/09/18 05:30:32;;;;;;;0.80;0.80;;;6.50;99.90;;;;;;6181280;23;20060;-76
2022/09/18 05:33:06;;;;;;;6.15;0.93;;;6.50;97.10;;;;;;6181962;23;20052;-76
2022/09/18 05:35:33;;;;;;;0.50;0.50;;;6.70;99.90;;;;;;6181377;23;20004;-76
2022/09/18 05:37:59;;;;;;;0.82;0.65;;;;;;;;;;6181594;23;20001;-76
2022/09/18 05:40:29;;;;;;;0.88;0.80;;;6.50;97.10;;;;;;6179930;23;20021;-76
2022/09/18 05:42:55;;;;;;;0.60;0.60;;;;;;;;;;6181116;23;20503;-76
2022/09/18 05:45:21;;;;;;;0.60;0.60;;;;;;;;;;6180591;23;20084;-76
2022/09/18 05:48:02;;;;;;;0.93;0.88;;;6.60;97.80;;;;;;6181546;23;20012;-75
2022/09/18 05:50:28;;;;;;;0.77;0.77;;;6.60;99.90;;;;;;6181182;23;20001;-76
2022/09/18 05:53:05;;;;;;;0.70;0.68;;;6.70;97.30;;;;;;6181032;23;20416;-75
2022/09/18 05:55:32;;;;;;;0.63;0.63;;;7.30;99.90;;;;;;6181496;23;20011;-76
2022/09/18 05:57:58;;;;;;;0.93;0.67;;;6.90;99.90;;;;;;6180866;23;20020;-76
2022/09/18 06:00:26;;;;;;;0.67;0.67;;;7.10;99.90;;;;;;6181284;23;20253;-75
2022/09/18 06:03:17;;;;;;;0.80;0.80;;;6.90;99.10;;;;;;6181045;23;20229;-76
2022/09/18 06:05:51;;;;;;;0.77;0.77;;;6.90;97.50;;;;;;6176898;23;20001;-76
2022/09/18 06:08:17;;;;;;;0.70;0.70;;;;;;;;;;6181333;23;20005;-75
2022/09/18 06:10:43;;;;;;;3.63;0.70;;;7.30;99.90;;;;;;6182334;23;20008;-76
2022/09/18 06:13:15;;;;;;;1.60;1.50;;;11.30;93.40;;;;;;6182998;23;20001;-76
2022/09/18 06:15:45;;;;;;;1.80;1.70;;;13.60;83.20;;;;;;6181985;23;20005;-76
2022/09/18 06:18:13;;;;;;;1.58;1.48;;;15.10;90.00;;;;;;6182878;23;20005;-76
2022/09/18 06:20:42;;;;;;;1.33;1.30;;;17.10;75.80;;;;;;6179357;23;20017;-81
2022/09/18 06:23:08;;;;;;;1.50;1.40;;;;;;;;;;6179890;23;20001;-81
2022/09/18 06:25:35;;;;;;;1.50;1.40;;;;;;;;;;6180567;23;20021;-79
2022/09/18 06:28:01;;;;;;;4.73;1.40;;;;;;;;;;6178548;23;20005;-82
2022/09/18 06:30:29;;;;;;;1.30;1.20;;;23.40;51.40;;;;;;6176063;23;20006;-75
2022/09/18 06:32:55;;;;;;;1.63;1.17;;;;;;;;;;6176567;23;20044;-75
2022/09/18 06:35:22;;;;;;;2.15;1.17;;;21.70;53.10;;;;;;6178273;23;20424;-75
2022/09/18 06:37:48;;;;;;;1.42;0.90;;;23.80;58.60;;;;;;6179829;23;20437;-74
2022/09/18 06:40:13;;;;;;;0.90;0.70;;;26.70;53.10;;;;;;6180201;23;20013;-75
2022/09/18 06:42:40;;;;;;;1.80;0.88;;;28.80;42.30;;;;;;6180610;23;20009;-75
2022/09/18 06:45:06;;;;;;;1.42;1.00;;;31.10;47.70;;;;;;6180271;23;20035;-76
2022/09/18 06:47:32;;;;;;;0.85;0.70;;;33.00;44.40;;;;;;6178397;23;20507;-77
2022/09/18 06:49:57;;;;;;;2.58;0.70;;;34.50;41.50;;;;;;6178754;23;20040;-78
2022/09/18 06:52:23;;;;;;;3.60;0.73;;;36.20;40.20;;;;;;6180411;23;20390;-78
2022/09/18 06:54:49;;;;;;;1.23;0.60;;;37.30;38.50;;;;;;6180118;23;19997;-79
2022/09/18 06:57:14;;;;;;;0.77;0.40;;;38.90;33.20;;;;;;6179349;23;20020;-81
2022/09/18 06:59:41;;;;;;;;;;;38.60;31.20;;;;;;6178921;23;20021;-80
2022/09/18 07:02:12;;;;;;;1.45;0.50;;;41.00;30.60;;;;;;6178463;23;19906;-78
2022/09/18 07:04:39;;;;;;;2.35;0.65;;;42.20;34.30;;;;;;6180444;23;20036;-79
2022/09/18 07:07:05;;;;;;;1.15;1.02;;;42.90;33.30;;;;;;6180009;23;20012;-77
2022/09/18 07:09:31;;;;;;;1.33;0.50;;;;;;;;;;6180142;23;20445;-78
2022/09/18 07:11:57;;;;;;;0.50;0.50;;;44.00;30.20;;;;;;6180608;23;20009;-78
2022/09/18 07:14:23;;;;;;;1.75;0.47;;;43.70;30.00;;;;;;6128654;23;20009;-77
2022/09/18 07:16:48;;;;;;;0.43;0.30;;;43.80;29.70;;;;;;6180963;23;20083;-77
2022/09/18 07:19:14;;;;;;;1.10;0.50;;;44.00;29.60;;;;;;6180861;23;20341;-77
2022/09/18 07:21:39;;;;;;;0.82;0.40;;;45.40;29.50;;;;;;6178828;23;20005;-78
2022/09/18 07:24:05;;;;;;;;;;;45.20;25.90;;;;;;6180818;23;20013;-77
2022/09/18 07:26:31;;;;;;;0.60;0.20;;;47.00;28.00;;;;;;6180660;23;19999;-77
2022/09/18 07:28:57;;;;;;;3.83;0.68;;;;;;;;;;6180245;23;20043;-79
2022/09/18 07:31:22;;;;;;;0.35;0.35;;;47.40;27.80;;;;;;6179805;23;20009;-77
2022/09/18 07:33:52;;;;;;;1.77;0.40;;;48.30;28.20;;;;;;6153982;23;20040;-77
2022/09/18 07:36:19;;;;;;;1.33;0.70;;;48.60;27.10;;;;;;6180215;23;20448;-77
2022/09/18 07:38:48;;;;;;;2.00;0.80;;;48.30;26.90;;;;;;6180185;23;20005;-77
2022/09/18 07:41:14;;;;;;;1.08;0.60;;;48.50;26.80;;;;;;6179898;23;20458;-78
2022/09/18 07:43:40;;;;;;;10.68;0.77;;;48.60;26.50;;;;;;6179245;23;20080;-78
2022/09/18 07:46:07;;;;;;;2.70;0.60;;;48.30;26.20;;;;;;6178926;23;20444;-77
2022/09/18 07:48:33;;;;;;;1.42;0.68;;;48.60;25.80;;;;;;6179969;23;20001;-77
2022/09/18 07:51:00;;;;;;;1.67;0.60;;;47.80;25.40;;;;;;6179514;23;20012;-78
2022/09/18 07:53:25;;;;;;;2.75;0.90;;;49.10;24.30;;;;;;6179522;23;20016;-78
2022/09/18 07:55:52;;;;;;;1.42;0.50;;;47.10;25.30;;;;;;6179948;23;20005;-80
2022/09/18 07:58:18;;;;;;;4.10;0.90;;;;;;;;;;6180366;23;20012;-79
2022/09/18 08:00:44;;;;;;;2.15;0.38;;;;;;;;;;6179518;23;20522;-79
2022/09/18 08:03:12;;;;;;;1.77;0.50;;;45.50;22.70;;;;;;6179579;23;20344;-79
2022/09/18 08:05:41;;;;;;;0.50;0.30;;;45.30;24.30;;;;;;6180138;23;20016;-79
2022/09/18 08:08:14;;;;;;;3.22;0.50;;;44.60;22.70;;;;;;6179115;23;20009;-78
2022/09/18 08:10:42;;;;;;;1.52;0.77;;;43.80;22.50;;;;;;6180258;23;20018;-77
2022/09/18 08:13:08;;;;;;;0.75;0.40;;;43.40;26.20;;;;;;6179980;23;20009;-78
2022/09/18 08:15:36;;;;;;;3.53;0.65;;;42.60;22.60;;;;;;6176692;23;20013;-77
2022/09/18 08:18:03;;;;;;;6.65;0.73;;;;;;;;;;6176246;23;20340;-76
2022/09/18 08:20:29;;;;;;;2.63;0.68;;;;;;;;;;6175384;23;20001;-78
2022/09/18 08:22:54;;;;;;;2.65;0.98;;;41.60;25.10;;;;;;6174964;23;20005;-78
2022/09/18 08:25:20;;;;;;;;;;;42.10;22.80;;;;;;6176468;23;20047;-78
2022/09/18 08:27:46;;;;;;;1.75;0.70;;;41.60;25.00;;;;;;6175725;23;19911;-77
2022/09/18 08:30:13;;;;;;;;;;;42.10;22.50;;;;;;6175820;23;20013;-77
2022/09/18 08:32:39;;;;;;;3.08;0.50;;;;;;;;;;6149438;23;19910;-78
2022/09/18 08:35:05;;;;;;;2.95;0.50;;;42.70;22.80;;;;;;6175513;23;20012;-81
2022/09/18 08:37:32;;;;;;;2.17;0.65;;;;;;;;;;6175847;23;20016;-79
2022/09/18 08:39:58;;;;;;;0.52;0.30;;;;;;;;;;6175613;23;20112;-79
2022/09/18 08:43:10;;;;;;;1.27;0.93;;;41.70;22.50;;;;;;6148884;23;20009;-80
2022/09/18 08:45:55;;;;;;;2.05;0.35;;;41.40;22.60;;;;;;6083634;23;20547;-79
2022/09/18 08:48:36;;;;;;;4.63;0.50;;;41.00;22.70;;;;;;6083027;23;20394;-77
2022/09/18 08:51:17;;;;;;;0.82;0.30;;;40.90;27.40;;;;;;6081959;23;20074;-76
2022/09/18 08:53:46;;;;;;;3.25;0.40;;;40.40;22.80;;;;;;6083482;23;20010;-76
2022/09/18 08:56:17;;;;;;;1.45;0.45;;;40.80;23.00;;;;;;6082623;23;20093;-80
2022/09/18 08:58:57;;;;;;;3.20;0.47;;;41.00;23.20;;;;;;6082845;23;20017;-77
2022/09/18 09:01:41;;;;;;;1.65;0.77;;;41.40;23.40;;;;;;6082372;23;20409;-78
2022/09/18 09:04:27;;;;;;;1.92;0.43;;;41.70;23.20;;;;;;6082083;23;20013;-75
2022/09/18 09:06:53;;;;;;;1.10;0.40;;;;;;;;;;6082531;23;20077;-79
2022/09/18 09:09:27;;;;;;;;;;;42.50;22.90;;;;;;6083744;23;20022;-79
2022/09/18 09:12:24;;;;;;;1.37;0.50;;;42.30;22.60;;;;;;6082291;23;20641;-78
2022/09/18 09:14:58;;;;;;;3.03;0.40;;;43.00;22.50;;;;;;6082452;23;20119;-77
2022/09/18 09:18:04;;;;;;;3.63;0.43;;;42.90;27.10;;;;;;6085404;23;20345;-76
2022/09/18 09:20:41;;;;;;;1.10;0.40;;;42.10;24.00;;;;;;6078790;23;20380;-77
2022/09/18 09:23:45;;;;;;;1.27;0.32;;;41.20;22.40;;;;;;6087925;23;20011;-75
2022/09/18 09:26:13;;;;;;;1.00;0.30;;;39.80;22.70;;;;;;6086697;23;20317;-75
2022/09/18 09:28:51;;;;;;;0.93;0.28;;;39.90;23.90;;;;;;6088388;23;20011;-76
2022/09/18 09:31:21;;;;;;;2.97;0.65;;;38.80;22.90;;;;;;6087991;23;20117;-77
2022/09/18 09:33:47;;;;;;;3.50;0.57;;;;;;;;;;6087387;23;20003;-78
2022/09/18 09:36:14;;;;;;;;;;;40.80;22.80;;;;;;6088146;23;20166;-77
2022/09/18 09:38:53;;;;;;;2.53;0.40;;;44.40;22.60;;;;;;6088217;23;19956;-77
2022/09/18 09:41:35;;;;;;;2.20;0.68;;;45.60;22.30;;;;;;6087545;23;20013;-78
2022/09/18 09:44:27;;;;;;;4.43;1.67;;;46.50;25.50;;;;;;6088127;23;20538;-78
2022/09/18 09:47:17;;;;;;;39.42;12.77;;;46.70;25.30;;;;;;6089533;23;20014;-77
2022/09/18 09:49:51;;;;;;;3.00;0.70;;;46.70;25.00;;;;;;6089024;23;20014;-77
2022/09/18 09:52:24;;;;;;;1.98;0.80;;;46.50;25.00;;;;;;6090219;23;20010;-83
2022/09/18 09:54:59;;;;;;;0.60;0.30;;;47.00;21.30;;;;;;6089363;23;21176;-82
2022/09/18 09:57:40;;;;;;;0.73;0.30;;;46.20;24.10;;;;;;6145902;23;20021;-83
2022/09/18 10:00:17;;;;;;;2.10;0.28;;;45.70;20.90;;;;;;6180401;23;20009;-83
2022/09/18 10:03:03;;;;;;;1.70;0.38;;;45.90;24.20;;;;;;6179840;23;20008;-83
2022/09/18 10:05:41;;;;;;;3.60;0.30;;;45.60;20.90;;;;;;6180430;23;20004;-83
2022/09/18 10:08:07;;;;;;;4.40;0.32;;;;;;;;;;6153555;23;20012;-83
2022/09/18 10:10:42;;;;;;;0.88;0.30;;;45.70;23.30;;;;;;6180544;23;20013;-83
2022/09/18 10:13:13;;;;;;;;;;;45.90;21.20;;;;;;6180700;23;20037;-82
2022/09/18 10:15:45;;;;;;;0.98;0.20;;;45.70;24.70;;;;;;6180687;23;19900;-82
2022/09/18 10:18:24;;;;;;;2.30;0.40;;;45.90;24.60;;;;;;6181132;23;20076;-83
2022/09/18 10:20:55;;;;;;;0.40;0.30;;;45.90;23.70;;;;;;6180748;23;20009;-82
2022/09/18 10:23:33;;;;;;;1.63;0.75;;;;;;;;;;6181205;23;20048;-83
2022/09/18 10:26:00;;;;;;;4.43;0.35;;;45.80;20.60;;;;;;6179924;23;20445;-82
2022/09/18 10:28:28;;;;;;;0.47;0.30;;;44.90;20.50;;;;;;6180931;23;20511;-83
2022/09/18 10:31:10;;;;;;;0.93;0.25;;;44.60;24.00;;;;;;6180618;23;20036;-82
2022/09/18 10:33:40;;;;;;;2.75;0.30;;;44.50;24.00;;;;;;6180313;23;20015;-82
2022/09/18 10:36:31;;;;;;;3.05;0.77;;;44.40;22.50;;;;;;6181095;23;20043;-83
2022/09/18 10:38:58;;;;;;;1.83;0.25;;;44.90;20.70;;;;;;6180479;23;20009;-83
2022/09/18 10:41:32;;;;;;;0.60;0.20;;;44.10;20.40;;;;;;6180271;23;20047;-83
2022/09/18 10:43:58;;;;;;;0.65;0.30;;;;;;;;;;6180793;23;20040;-83
2022/09/18 10:46:33;;;;;;;1.48;0.20;;;45.40;22.00;;;;;;6180067;23;20005;-82
2022/09/18 10:49:16;;;;;;;;;;;45.40;20.90;;;;;;6180688;23;20551;-83
2022/09/18 10:51:42;;;;;;;3.33;0.20;;;;;;;;;;6180467;23;19934;-82
2022/09/18 10:54:21;;;;;;;2.05;0.30;;;46.10;20.60;;;;;;6180575;23;20055;-83
2022/09/18 10:56:47;;;;;;;1.17;0.15;;;46.10;23.60;;;;;;6180346;23;20301;-82
2022/09/18 10:59:25;;;;;;;2.85;0.22;;;46.20;24.90;;;;;;6179285;23;20031;-82
2022/09/18 11:01:57;;;;;;;1.73;0.20;;;45.20;20.40;;;;;;6179013;23;20420;-84
2022/09/18 11:04:23;;;;;;;1.33;0.10;;;;;;;;;;6180989;23;20029;-84
2022/09/18 11:06:50;;;;;;;1.13;0.20;;;;;;;;;;6180320;23;20040;-84
2022/09/18 11:09:18;;;;;;;1.83;0.20;;;44.10;20.50;;;;;;6180286;23;20422;-84
2022/09/18 11:11:50;;;;;;;0.55;0.13;;;43.60;20.60;;;;;;6180112;23;20001;-85
2022/09/18 11:14:23;;;;;;;1.75;0.15;;;43.90;26.60;;;;;;6180667;23;20070;-85
2022/09/18 11:16:53;;;;;;;0.93;0.13;;;43.50;20.90;;;;;;6180510;23;20318;-85
2022/09/18 11:19:29;;;;;;;2.70;0.10;;;43.30;21.00;;;;;;6182734;23;20009;-85
2022/09/18 11:21:58;;;;;;;0.10;0.10;;;43.00;21.10;;;;;;6182103;23;20339;-86
2022/09/18 11:24:24;;;;;;;3.35;0.20;;;;;;;;;;6182891;23;20005;-85
2022/09/18 11:26:55;;;;;;;0.95;0.30;;;41.20;21.50;;;;;;6182064;23;20429;-86
2022/09/18 11:29:33;;;;;;;0.82;0.28;;;39.50;22.10;;;;;;6178583;23;20452;-85
2022/09/18 11:32:18;;;;;;;0.85;0.30;;;36.60;23.70;;;;;;6182186;23;20011;-84
2022/09/18 11:35:09;;;;;;;4.18;0.28;;;34.50;31.30;;;;;;6182554;23;20006;-85
2022/09/18 11:37:35;;;;;;;1.13;0.30;;;32.20;33.00;;;;;;6180474;23;20013;-85
2022/09/18 11:40:08;;;;;;;0.77;0.45;;;31.20;26.00;;;;;;6182063;23;20005;-84
2022/09/18 11:42:45;;;;;;;1.50;0.50;;;30.60;36.90;;;;;;6182023;23;20001;-85
2022/09/18 11:45:41;;;;;;;2.67;0.70;;;30.10;28.00;;;;;;6182028;23;20321;-85
2022/09/18 11:48:22;;;;;;;1.40;0.47;;;29.90;29.20;;;;;;6182239;23;20001;-84
2022/09/18 11:50:51;;;;;;;0.85;0.30;;;29.30;38.50;;;;;;6182290;23;20017;-83
2022/09/18 11:53:24;;;;;;;2.58;0.50;;;28.80;28.50;;;;;;6182098;23;20079;-86
2022/09/18 11:56:02;;;;;;;2.47;0.35;;;27.90;40.00;;;;;;6182191;23;20005;-85
2022/09/18 11:58:35;;;;;;;1.13;0.50;;;27.50;41.40;;;;;;6182717;23;20009;-85
2022/09/18 12:01:01;;;;;;;1.40;0.30;;;;;;;;;;6182177;23;20096;-86
2022/09/18 12:03:31;;;;;;;4.30;0.77;;;27.10;33.20;;;;;;6182685;23;20025;-86
2022/09/18 12:06:05;;;;;;;0.60;0.60;;;25.70;42.70;;;;;;6182112;23;19997;-86
2022/09/18 12:08:41;;;;;;;1.17;0.50;;;25.80;33.90;;;;;;6181867;23;20068;-85
2022/09/18 12:11:08;;;;;;;0.68;0.63;;;;;;;;;;6182311;23;20013;-85
2022/09/18 12:14:06;;;;;;;1.48;0.60;;;26.00;43.20;;;;;;6181998;23;20008;-86
2022/09/18 12:16:37;;;;;;;1.38;0.73;;;26.10;43.10;;;;;;6181963;23;20008;-85
2022/09/18 12:19:19;;;;;;;2.17;0.55;;;26.40;37.90;;;;;;6181981;23;19997;-85
2022/09/18 12:21:48;;;;;;;2.08;0.50;;;;;;;;;;6182216;23;20032;-87
2022/09/18 12:24:16;;;;;;;0.75;0.40;;;26.30;31.50;;;;;;6182140;23;20494;-85
2022/09/18 12:26:44;;;;;;;1.45;0.63;;;26.50;31.60;;;;;;6181832;23;20472;-86
2022/09/18 12:29:30;;;;;;;1.55;0.55;;;26.30;33.30;;;;;;6181847;23;20084;-86
2022/09/18 12:31:56;;;;;;;0.65;0.55;;;;;;;;;;6182439;23;20392;-86
2022/09/18 12:34:40;;;;;;;1.13;0.70;;;26.00;44.10;;;;;;6182066;23;20040;-86
2022/09/18 12:37:28;;;;;;;1.73;0.52;;;25.90;43.20;;;;;;6181917;23;20456;-86
2022/09/18 12:39:54;;;;;;;2.22;0.77;;;;;;;;;;6182215;23;20028;-87
2022/09/18 12:42:53;;;;;;;1.08;0.70;;;25.50;32.20;;;;;;6182263;23;20444;-86
2022/09/18 12:45:33;;;;;;;3.85;0.88;;;25.50;45.10;;;;;;6181646;23;20001;-86
2022/09/18 12:48:40;;;;;;;0.65;0.40;;;24.70;32.90;;;;;;6181752;23;20084;-84
2022/09/18 12:51:08;;;;;;;;;;;24.70;33.60;;;;;;6090952;23;20456;-83
2022/09/18 12:53:35;;;;;;;1.17;0.70;;;;;;;;;;6090664;23;19905;-83
2022/09/18 12:56:17;;;;;;;1.02;0.50;;;23.90;44.30;;;;;;6090216;23;20013;-83
2022/09/18 12:58:57;;;;;;;2.15;0.85;;;23.80;35.30;;;;;;6090015;23;20018;-83
2022/09/18 13:02:11;;;;;;;0.70;0.50;;;23.70;37.20;;;;;;6090399;23;20011;-83
2022/09/18 13:04:44;;;;;;;2.83;0.50;;;23.50;35.30;;;;;;6033020;23;20565;-84
2022/09/18 13:07:11;;;;;;;1.05;0.75;;;;;;;;;;6033119;23;20074;-83
2022/09/18 13:10:20;;;;;;;3.88;0.60;;;23.50;35.60;;;;;;6025551;23;20030;-84
2022/09/18 13:13:21;;;;;;;0.50;0.50;;;23.00;50.10;;;;;;5974082;24;20012;-83
2022/09/18 13:16:07;;;;;;;0.50;0.50;;;23.20;50.90;;;;;;5919941;24;20009;-84
2022/09/18 13:18:50;;;;;;;1.17;0.77;;;22.90;37.50;;;;;;5897344;24;20092;-84
2022/09/18 13:21:52;;;;;;;1.55;0.52;;;22.80;37.50;;;;;;5898835;24;20013;-84
2022/09/18 13:24:22;;;;;;;1.02;0.60;;;22.80;37.40;;;;;;5910350;24;20013;-84
2022/09/18 13:26:50;;;;;;;2.97;0.70;;;22.90;37.40;;;;;;5936987;24;20008;-83
2022/09/18 13:29:34;;;;;;;;;;;22.90;37.80;;;;;;5949947;24;20029;-84
2022/09/18 13:32:00;;;;;;;0.95;0.68;;;;;;;;;;5949511;24;19903;-84
2022/09/18 13:34:26;;;;;;;1.35;0.60;;;;;;;;;;5949632;24;20132;-85
2022/09/18 13:36:52;;;;;;;4.95;0.70;;;;;;;;;;5949334;24;20018;-84
2022/09/18 13:39:30;;;;;;;3.00;1.15;;;23.50;37.30;;;;;;5926159;24;20350;-84
2022/09/18 13:41:58;;;;;;;1.75;0.52;;;23.60;37.40;;;;;;6033742;23;20010;-84